sensor_id;sensor_type;location;lat;lon;timestamp;temperature;humidity
37488;DHT22;23342;52.620;13.300;2023-02-17T15:35:22;11.20;99.90
37488;DHT22;23342;52.620;13.300;2023-02-17T15:37:49;11.10;99.90
37488;DHT22;23342;52.620;13.300;2023-02-17T15:40:17;11.10;99.90
37488;DHT22;23342;52.620;13.300;2023-02-17T15:42:44;11.10;99.90
37488;DHT22;23342;52.620;13.300;2023-02-17T15:45:13;11.20;99.90
37488;DHT22;23342;52.620;13.300;2023-02-17T15:47:40;11.20;99.90
37488;DHT22;23342;52.620;13.300;2023-02-17T15:50:12;11.20;99.90
37488;DHT22;23342;52.620;13.300;2023-02-17T15:52:42;11.30;99.90
37488;DHT22;23342;52.620;13.300;2023-02-17T15:55:07;11.30;99.90
37488;DHT22;23342;52.620;13.300;2023-02-17T15:57:33;11.40;99.90
37488;DHT22;23342;52.620;13.300;2023-02-17T16:00:01;11.40;99.90
37488;DHT22;23342;52.620;13.300;2023-02-17T16:02:26;11.50;99.90
37488;DHT22;23342;52.620;13.300;2023-02-17T16:04:52;11.50;99.90
37488;DHT22;23342;52.620;13.300;2023-02-17T16:07:17;11.40;99.90
37488;DHT22;23342;52.620;13.300;2023-02-17T16:09:43;11.50;99.90
37488;DHT22;23342;52.620;13.300;2023-02-17T16:12:16;11.50;99.90
37488;DHT22;23342;52.620;13.300;2023-02-17T16:14:43;11.60;99.90
37488;DHT22;23342;52.620;13.300;2023-02-17T16:17:14;11.60;99.90
37488;DHT22;23342;52.620;13.300;2023-02-17T16:19:40;11.60;99.90
37488;DHT22;23342;52.620;13.300;2023-02-17T16:22:06;11.60;99.90
37488;DHT22;23342;52.620;13.300;2023-02-17T16:24:31;11.60;99.90
37488;DHT22;23342;52.620;13.300;2023-02-17T16:26:57;11.70;99.90
37488;DHT22;23342;52.620;13.300;2023-02-17T16:29:22;11.70;99.90
37488;DHT22;23342;52.620;13.300;2023-02-17T16:31:48;11.70;99.90
37488;DHT22;23342;52.620;13.300;2023-02-17T16:34:22;11.70;99.90
37488;DHT22;23342;52.620;13.300;2023-02-17T16:36:49;11.70;99.90
37488;DHT22;23342;52.620;13.300;2023-02-17T16:39:17;11.80;99.90
37488;DHT22;23342;52.620;13.300;2023-02-17T16:41:45;11.80;99.90
37488;DHT22;23342;52.620;13.300;2023-02-17T16:44:13;11.80;99.90
37488;DHT22;23342;52.620;13.300;2023-02-17T16:46:39;11.90;99.90
37488;DHT22;23342;52.620;13.300;2023-02-17T16:49:30;11.90;99.90
37488;DHT22;23342;52.620;13.300;2023-02-17T16:52:01;11.90;99.90
37488;DHT22;23342;52.620;13.300;2023-02-17T16:54:28;11.80;99.90
37488;DHT22;23342;52.620;13.300;2023-02-17T16:56:54;11.80;99.90
37488;DHT22;23342;52.620;13.300;2023-02-17T16:59:21;11.80;99.90
37488;DHT22;23342;52.620;13.300;2023-02-17T17:01:48;11.80;99.90
37488;DHT22;23342;52.620;13.300;2023-02-17T17:04:15;11.70;99.90
37488;DHT22;23342;52.620;13.300;2023-02-17T17:06:49;11.70;99.90
37488;DHT22;23342;52.620;13.300;2023-02-17T17:09:18;11.70;99.90
37488;DHT22;23342;52.620;13.300;2023-02-17T17:11:45;11.70;99.90
37488;DHT22;23342;52.620;13.300;2023-02-17T17:14:11;11.80;99.90
37488;DHT22;23342;52.620;13.300;2023-02-17T17:16:37;11.90;99.90
37488;DHT22;23342;52.620;13.300;2023-02-17T17:19:04;11.90;99.90
37488;DHT22;23342;52.620;13.300;2023-02-17T17:21:30;11.90;99.90
37488;DHT22;23342;52.620;13.300;2023-02-17T17:23:56;11.90;99.90
37488;DHT22;23342;52.620;13.300;2023-02-17T17:26:25;11.90;99.90
37488;DHT22;23342;52.620;13.300;2023-02-17T17:28:52;11.80;99.90
37488;DHT22;23342;52.620;13.300;2023-02-17T17:31:18;11.90;99.90
37488;DHT22;23342;52.620;13.300;2023-02-17T17:33:46;11.80;99.90
37488;DHT22;23342;52.620;13.300;2023-02-17T17:36:17;11.90;99.90
37488;DHT22;23342;52.620;13.300;2023-02-17T17:38:44;11.80;99.90
37488;DHT22;23342;52.620;13.300;2023-02-17T17:41:13;11.80;99.90
37488;DHT22;23342;52.620;13.300;2023-02-17T17:43:39;11.80;99.90
37488;DHT22;23342;52.620;13.300;2023-02-17T17:46:11;11.90;99.90
37488;DHT22;23342;52.620;13.300;2023-02-17T17:48:37;11.90;99.90
37488;DHT22;23342;52.620;13.300;2023-02-17T17:51:03;11.90;99.90
37488;DHT22;23342;52.620;13.300;2023-02-17T17:53:28;11.90;99.90
37488;DHT22;23342;52.620;13.300;2023-02-17T17:55:54;11.90;99.90
37488;DHT22;23342;52.620;13.300;2023-02-17T17:58:19;11.90;99.90
37488;DHT22;23342;52.620;13.300;2023-02-17T18:00:46;11.90;99.90
37488;DHT22;23342;52.620;13.300;2023-02-17T18:03:11;11.90;99.90
37488;DHT22;23342;52.620;13.300;2023-02-17T18:05:37;11.90;99.90
37488;DHT22;23342;52.620;13.300;2023-02-17T18:08:03;11.80;99.90
37488;DHT22;23342;52.620;13.300;2023-02-17T18:10:30;11.70;99.90
37488;DHT22;23342;52.620;13.300;2023-02-17T18:12:56;11.70;99.90
37488;DHT22;23342;52.620;13.300;2023-02-17T18:15:22;11.60;99.90
37488;DHT22;23342;52.620;13.300;2023-02-17T18:17:49;11.50;99.90
37488;DHT22;23342;52.620;13.300;2023-02-17T18:20:15;11.50;99.90
37488;DHT22;23342;52.620;13.300;2023-02-17T18:22:41;11.40;99.90
37488;DHT22;23342;52.620;13.300;2023-02-17T18:25:08;11.40;99.90
37488;DHT22;23342;52.620;13.300;2023-02-17T18:27:42;11.30;99.90
37488;DHT22;23342;52.620;13.300;2023-02-17T18:30:11;11.30;99.90
37488;DHT22;23342;52.620;13.300;2023-02-17T18:32:37;11.20;99.90
37488;DHT22;23342;52.620;13.300;2023-02-17T18:35:03;11.20;99.90
37488;DHT22;23342;52.620;13.300;2023-02-17T18:37:29;11.10;99.90
37488;DHT22;23342;52.620;13.300;2023-02-17T18:39:54;11.10;99.90
37488;DHT22;23342;52.620;13.300;2023-02-17T18:42:20;11.10;99.90
37488;DHT22;23342;52.620;13.300;2023-02-17T18:44:46;11.10;99.90
37488;DHT22;23342;52.620;13.300;2023-02-17T18:47:11;11.10;99.90
37488;DHT22;23342;52.620;13.300;2023-02-17T18:49:37;11.00;99.90
37488;DHT22;23342;52.620;13.300;2023-02-17T18:52:02;10.90;99.90
37488;DHT22;23342;52.620;13.300;2023-02-17T18:54:28;10.90;99.90
37488;DHT22;23342;52.620;13.300;2023-02-17T18:56:53;10.90;99.90
37488;DHT22;23342;52.620;13.300;2023-02-17T18:59:19;10.80;99.90
37488;DHT22;23342;52.620;13.300;2023-02-17T19:01:44;10.80;99.90
37488;DHT22;23342;52.620;13.300;2023-02-17T19:04:10;10.80;99.90
37488;DHT22;23342;52.620;13.300;2023-02-17T19:06:37;10.80;99.90
37488;DHT22;23342;52.620;13.300;2023-02-17T19:09:03;10.70;99.90
37488;DHT22;23342;52.620;13.300;2023-02-17T19:11:29;10.60;99.90
37488;DHT22;23342;52.620;13.300;2023-02-17T19:13:55;10.60;99.90
37488;DHT22;23342;52.620;13.300;2023-02-17T19:16:26;10.60;99.90
37488;DHT22;23342;52.620;13.300;2023-02-17T19:18:53;10.50;99.90
37488;DHT22;23342;52.620;13.300;2023-02-17T19:21:19;10.50;99.90
37488;DHT22;23342;52.620;13.300;2023-02-17T19:23:45;10.40;99.90
37488;DHT22;23342;52.620;13.300;2023-02-17T19:26:13;10.30;99.90
37488;DHT22;23342;52.620;13.300;2023-02-17T19:28:39;10.20;99.90
37488;DHT22;23342;52.620;13.300;2023-02-17T19:31:06;10.20;99.90
37488;DHT22;23342;52.620;13.300;2023-02-17T19:33:32;10.10;99.90
37488;DHT22;23342;52.620;13.300;2023-02-17T19:35:58;10.10;99.90
37488;DHT22;23342;52.620;13.300;2023-02-17T19:38:23;10.00;99.90
37488;DHT22;23342;52.620;13.300;2023-02-17T19:40:49;10.00;99.90
37488;DHT22;23342;52.620;13.300;2023-02-17T19:43:14;10.00;99.90
37488;DHT22;23342;52.620;13.300;2023-02-17T19:45:40;10.00;99.90
37488;DHT22;23342;52.620;13.300;2023-02-17T19:48:06;9.90;99.90
37488;DHT22;23342;52.620;13.300;2023-02-17T19:50:35;9.80;99.90
37488;DHT22;23342;52.620;13.300;2023-02-17T19:53:01;9.80;99.90
37488;DHT22;23342;52.620;13.300;2023-02-17T19:55:26;9.70;99.90
37488;DHT22;23342;52.620;13.300;2023-02-17T19:57:52;9.60;99.90
37488;DHT22;23342;52.620;13.300;2023-02-17T20:00:18;9.60;99.90
37488;DHT22;23342;52.620;13.300;2023-02-17T20:02:44;9.60;99.90
37488;DHT22;23342;52.620;13.300;2023-02-17T20:05:10;9.50;99.90
37488;DHT22;23342;52.620;13.300;2023-02-17T20:07:35;9.40;99.90
37488;DHT22;23342;52.620;13.300;2023-02-17T20:10:02;9.40;99.90
37488;DHT22;23342;52.620;13.300;2023-02-17T20:12:28;9.30;99.90
37488;DHT22;23342;52.620;13.300;2023-02-17T20:14:53;9.30;99.90
37488;DHT22;23342;52.620;13.300;2023-02-17T20:17:20;9.30;99.90
37488;DHT22;23342;52.620;13.300;2023-02-17T20:19:45;9.20;99.90
